Home > Products > Valid Products > TAF

000
FTUS44 KEWX 010520
TAFAUS
TAF
KAUS 010520Z 0106/0212 11003KT P6SM FEW070 SCT250
     FM011500 09007KT P6SM FEW060=



000
FTUS44 KEWX 010520
TAFSAT
TAF
KSAT 010520Z 0106/0212 VRB03KT P6SM SCT070 BKN250
     FM011600 09007KT P6SM FEW070=



000
FTUS44 KEWX 010520
TAFDRT
TAF
KDRT 010520Z 0106/0206 14008KT P6SM FEW060 SCT120
     FM011900 13010KT P6SM VCTS BKN050CB
     FM020100 11008KT P6SM BKN250=



000
FTUS44 KEWX 312336
TAFAUS
TAF
KAUS 312336Z 0100/0206 10008KT P6SM FEW070 SCT150
     FM010400 04004KT P6SM SCT070
     FM011500 09007KT P6SM FEW030 SCT070=



000
FTUS44 KEWX 312336
TAFDRT
TAF
KDRT 312336Z 0100/0124 07009KT P6SM SCT070 BKN250
      TEMPO 0100/0102 09015G30KT
     FM010200 12005KT P6SM SCT120
     FM012100 13010KT P6SM VCTS BKN050CB=



000
FTUS44 KEWX 312336
TAFSAT
TAF
KSAT 312336Z 0100/0206 03006KT P6SM FEW070 BKN250
     FM011500 09007KT P6SM FEW030 SCT070=



000
FTUS44 KEWX 312336
TAFAUS
TAF
KAUS 312336Z 0100/0206 10008KT P6SM FEW070 SCT150
     FM010400 04004KT P6SM SCT070
     FM011500 09007KT P6SM FEW030 SCT070=



000
FTUS44 KEWX 312336
TAFSAT
TAF
KSAT 312336Z 0100/0206 03006KT P6SM FEW070 BKN250
     FM011500 09007KT P6SM FEW030 SCT070=



000
FTUS44 KEWX 312336
TAFDRT
TAF
KDRT 312336Z 0100/0124 07009KT P6SM SCT070 BKN250
      TEMPO 0100/0102 09015G30KT
     FM010200 12005KT P6SM SCT120
     FM012100 13010KT P6SM VCTS BKN050CB=



000
FTUS44 KEWX 312233 AAC
TAFSAT
TAF AMD
KSAT 312233Z 3123/0124 VRB15KT P6SM VCTS FEW050CB SCT070 BKN250
     FM010200 05005KT P6SM BKN250=



000
FTUS44 KEWX 312229 AAA
TAFDRT
TAF AMD
KDRT 312229Z 3122/0118 08010G22KT P6SM SCT070 BKN250
     FM010200 09012KT P6SM SCT120
     FM011500 13010KT P6SM BKN050=



000
FTUS44 KEWX 312020 AAB
TAFSAT
TAF AMD
KSAT 312020Z 3120/0124 05010KT P6SM VCTS SCT070CB SCT250
      TEMPO 3120/3122 02020G35KT 2SM -TSRA OVC050CB
     FM010300 05005KT P6SM BKN250=



000
FTUS44 KEWX 312020 AAB
TAFSAT
TAF AMD
KSAT 312020Z 3120/0124 05010KT P6SM VCTS SCT070CB SCT250
      TEMPO 3120/3122 02020G35KT 2SM -TSRA OVC050CB
     FM010300 05005KT P6SM BKN250=



000
FTUS44 KEWX 311954 AAA
TAFSAT
TAF AMD
KSAT 311954Z 3120/0124 05010KT P6SM VCTS SCT070CB SCT250
     FM010300 05005KT P6SM BKN250=



000
FTUS44 KEWX 311954 AAA
TAFSAT
TAF AMD
KSAT 311954Z 3120/0124 05010KT P6SM VCTS SCT070CB SCT250
     FM010300 05005KT P6SM BKN250=



000
FTUS44 KEWX 311729
TAFAUS
TAF
KAUS 311729Z 3118/0124 30007KT P6SM FEW100
     FM312100 05010KT P6SM VCTS SCT070CB
     FM010000 05005KT P6SM BKN250=



000
FTUS44 KEWX 311729
TAFDRT
TAF
KDRT 311729Z 3118/0118 08006KT P6SM SCT070 BKN250
     FM011500 13010KT P6SM BKN050=



000
FTUS44 KEWX 311729
TAFSAT
TAF
KSAT 311729Z 3118/0124 26005KT P6SM BKN070 BKN250
     FM312100 05010KT P6SM VCTS SCT070CB SCT250
     FM010300 05005KT P6SM BKN250=



000
FTUS44 KEWX 311729
TAFAUS
TAF
KAUS 311729Z 3118/0124 30007KT P6SM FEW100
     FM312100 05010KT P6SM VCTS SCT070CB
     FM010000 05005KT P6SM BKN250=



000
FTUS44 KEWX 311729
TAFDRT
TAF
KDRT 311729Z 3118/0118 08006KT P6SM SCT070 BKN250
     FM011500 13010KT P6SM BKN050=



000
FTUS44 KEWX 311729
TAFSAT
TAF
KSAT 311729Z 3118/0124 26005KT P6SM BKN070 BKN250
     FM312100 05010KT P6SM VCTS SCT070CB SCT250
     FM010300 05005KT P6SM BKN250=



000
FTUS44 KEWX 311519 AAA
TAFAUS
TAF AMD
KAUS 311519Z 3115/0118 30007KT P6SM SCT070 BKN250
      TEMPO 3115/3116 6SM -RA SCT010 BKN035
     FM311900 05010KT P6SM VCTS SCT070CB SCT250
     FM010000 05005KT P6SM BKN250=



000
FTUS44 KEWX 311120
TAFAUS
TAF
KAUS 311120Z 3112/0118 30007KT P6SM SCT070 BKN250
     FM311900 05010KT P6SM VCTS SCT070CB SCT250
     FM010000 05005KT P6SM BKN250=



000
FTUS44 KEWX 311120
TAFDRT
TAF
KDRT 311120Z 3112/0112 08006KT P6SM SKC
     FM311900 13010KT P6SM SCT250=



000
FTUS44 KEWX 311120
TAFSAT
TAF
KSAT 311120Z 3112/0118 26005KT P6SM BKN250
     FM311900 05010KT P6SM VCTS SCT070CB SCT250
     FM010000 05005KT P6SM BKN250=



000
FTUS44 KEWX 310523
TAFSAT
TAF
KSAT 310523Z 3106/0112 VRB03KT P6SM SCT250
     FM311700 05010KT P6SM VCTS SCT070CB SCT250
     FM010000 05005KT P6SM BKN250=



000
FTUS44 KEWX 310523
TAFAUS
TAF
KAUS 310523Z 3106/0112 VRB03KT P6SM SCT070 SCT250
     FM311700 05010KT P6SM VCTS SCT070CB SCT250
     FM010000 05005KT P6SM BKN250=



000
FTUS44 KEWX 310523
TAFDRT
TAF
KDRT 310523Z 3106/0106 10006KT P6SM SKC
     FM311900 13011KT P6SM SKC
     FM312300 12006KT P6SM SKC=



000
FTUS44 KEWX 310523
TAFDRT
TAF
KDRT 310523Z 3106/0106 10006KT P6SM SKC
     FM311900 13011KT P6SM SKC
     FM312300 12006KT P6SM SKC=



000
FTUS44 KEWX 310523
TAFSAT
TAF
KSAT 310523Z 3106/0112 VRB03KT P6SM SCT250
     FM311700 05010KT P6SM VCTS SCT070CB SCT250
     FM010000 05005KT P6SM BKN250=



000
FTUS44 KEWX 310523
TAFAUS
TAF
KAUS 310523Z 3106/0112 VRB03KT P6SM SCT070 SCT250
     FM311700 05010KT P6SM VCTS SCT070CB SCT250
     FM010000 05005KT P6SM BKN250=



000
FTUS44 KEWX 302320
TAFSAT
TAF
KSAT 302320Z 3100/0106 15008KT P6SM FEW080 SCT250
     FM310700 VRB04KT P6SM SCT070 SCT250
     FM311800 07007KT P6SM SCT070 SCT250 PROB30 3120/3124 -TSRA
      BKN050CB=



000
FTUS44 KEWX 302320
TAFAUS
TAF
KAUS 302320Z 3100/0106 14006KT P6SM FEW080
     FM310400 VRB03KT P6SM SCT070 SCT250
     FM311700 05007KT P6SM SCT070 SCT250 PROB30 3121/3124 -TSRA
      BKN050CB=



000
FTUS44 KEWX 302320
TAFDRT
TAF
KDRT 302320Z 3100/3124 11008KT P6SM SKC
     FM311900 14008G16KT P6SM SKC=



000
FTUS44 KEWX 301736
TAFDRT
TAF
KDRT 301736Z 3018/3118 13009KT P6SM FEW070 FEW250
     FM310500 10005KT P6SM FEW070 FEW250=



000
FTUS44 KEWX 301736
TAFAUS
TAF
KAUS 301736Z 3018/3124 VRB03KT P6SM FEW250
     FM302000 12007KT P6SM FEW070 SCT250
     FM310500 VRB03KT P6SM SCT070 SCT250
     FM311500 07007KT P6SM SCT070 SCT250 PROB30 3118/3124 TSRA
      BKN050CB=



000
FTUS44 KEWX 301736
TAFSAT
TAF
KSAT 301736Z 3018/3124 VRB03KT P6SM SCT250
     FM302000 13007KT P6SM FEW070 SCT250
     FM310800 VRB03KT P6SM FEW010 SCT070 SCT250
     FM311800 10007KT P6SM SCT070 SCT250 PROB30 3118/3124 TSRA
      BKN050CB=



000
FTUS44 KEWX 301736
TAFAUS
TAF
KAUS 301736Z 3018/3124 VRB03KT P6SM FEW250
     FM302000 12007KT P6SM FEW070 SCT250
     FM310500 VRB03KT P6SM SCT070 SCT250
     FM311500 07007KT P6SM SCT070 SCT250 PROB30 3118/3124 TSRA
      BKN050CB=



000
FTUS44 KEWX 301736
TAFDRT
TAF
KDRT 301736Z 3018/3118 13009KT P6SM FEW070 FEW250
     FM310500 10005KT P6SM FEW070 FEW250=



000
FTUS44 KEWX 301611 AAC
TAFSAT
TAF AMD
KSAT 301611Z 3016/3118 00000KT P6SM FEW250
     FM301800 12008KT P6SM FEW070 SCT250
     FM310800 VRB03KT P6SM FEW070 SCT250=



000
FTUS44 KEWX 301609 AAB
TAFAUS
TAF AMD
KAUS 301609Z 3016/3118 00000KT P6SM FEW250
     FM301800 10006KT P6SM FEW070 SCT250
     FM310700 VRB03KT P6SM FEW070 SCT250=



000
FTUS44 KEWX 301444 AAB
TAFSAT
TAF AMD
KSAT 301444Z 3015/3118 23004KT P6SM FEW014 SCT250
     FM301800 12008KT P6SM FEW070 SCT250
     FM310800 VRB03KT P6SM FEW070 SCT250=



000
FTUS44 KEWX 301235 AAA
TAFAUS
TAF AMD
KAUS 301235Z 3013/3118 00000KT P6SM FEW008 SCT250
     FM301800 11007KT P6SM SCT070=



000
FTUS44 KEWX 301233 AAA
TAFSAT
TAF AMD
KSAT 301233Z 3013/3118 24006KT P6SM FEW009 SCT250
      TEMPO 3013/3015 BKN009
     FM301500 13005KT P6SM FEW025
     FM301800 12008KT P6SM SCT070=



000
FTUS44 KEWX 301127
TAFSAT
TAF
KSAT 301127Z 3012/3118 VRB03KT P6SM BKN009 BKN250
      TEMPO 3012/3014 3SM BR
     FM301500 13005KT P6SM FEW025
     FM301800 12008KT P6SM SCT070=



000
FTUS44 KEWX 301127
TAFAUS
TAF
KAUS 301127Z 3012/3118 VRB03KT P6SM FEW008 SCT200
      TEMPO 3012/3014 3SM BR SCT008
     FM301800 11007KT P6SM SCT070=



000
FTUS44 KEWX 301127
TAFDRT
TAF
KDRT 301127Z 3012/3112 08004KT P6SM FEW070 SCT250
     FM301600 13012KT P6SM SCT070=



000
FTUS44 KEWX 301127
TAFSAT
TAF
KSAT 301127Z 3012/3118 VRB03KT P6SM BKN009 BKN250
      TEMPO 3012/3014 3SM BR
     FM301500 13005KT P6SM FEW025
     FM301800 12008KT P6SM SCT070=



000
FTUS44 KEWX 301127
TAFAUS
TAF
KAUS 301127Z 3012/3118 VRB03KT P6SM FEW008 SCT200
      TEMPO 3012/3014 3SM BR SCT008
     FM301800 11007KT P6SM SCT070=



000
FTUS44 KEWX 301127
TAFDRT
TAF
KDRT 301127Z 3012/3112 08004KT P6SM FEW070 SCT250
     FM301600 13012KT P6SM SCT070=



000
FTUS44 KEWX 301019 AAA
TAFSAT
TAF AMD
KSAT 301019Z 3010/3112 VRB03KT P6SM BKN009 BKN250
     FM301500 13005KT P6SM FEW025
     FM301800 12008KT P6SM SCT070=



000
FTUS44 KEWX 300533
TAFDRT
TAF
KDRT 300533Z 3006/3106 11010KT P6SM FEW070 SCT250
     FM301200 10010KT P6SM FEW020 SCT070
     FM301600 13012KT P6SM SCT070=



000
FTUS44 KEWX 300533
TAFAUS
TAF
KAUS 300533Z 3006/3112 20006KT P6SM FEW070 SCT200
     FM300900 22003KT P6SM FEW013 SCT070
     FM301800 11007KT P6SM SCT070=



000
FTUS44 KEWX 300533
TAFSAT
TAF
KSAT 300533Z 3006/3112 15008KT P6SM FEW070 FEW200
     FM300900 21004KT P6SM SCT012 SCT070
     FM301800 12008KT P6SM SCT070=



000
FTUS44 KEWX 292326
TAFAUS
TAF
KAUS 292326Z 3000/3106 17010KT P6SM FEW070 SCT200
     FM300900 22003KT P6SM FEW013
      TEMPO 3011/3013 6SM BR
     FM301800 13007KT P6SM FEW070=



000
FTUS44 KEWX 292326
TAFDRT
TAF
KDRT 292326Z 3000/3024 13012KT P6SM SKC
     FM300200 10011KT P6SM SKC
     FM301200 10010KT P6SM FEW020
     FM301600 13012KT P6SM SKC=



000
FTUS44 KEWX 292326
TAFSAT
TAF
KSAT 292326Z 3000/3106 14013KT P6SM FEW070 FEW250
     FM300900 21004KT P6SM SCT012
     FM301800 13008KT P6SM FEW070=



000
FTUS44 KEWX 291720
TAFDRT
TAF
KDRT 291720Z 2918/3018 13012KT P6SM SKC
     FM301000 10009KT P6SM FEW020=



000
FTUS44 KEWX 291720
TAFAUS
TAF
KAUS 291720Z 2918/3024 18008KT P6SM FEW070
     FM300900 22003KT P6SM FEW015
      TEMPO 3011/3013 5SM BR
     FM301800 16007KT P6SM FEW070=



000
FTUS44 KEWX 291720
TAFAUS
TAF
KAUS 291720Z 2918/3024 18008KT P6SM FEW070
     FM300900 22003KT P6SM FEW015
      TEMPO 3011/3013 5SM BR
     FM301800 16007KT P6SM FEW070=



000
FTUS44 KEWX 291720
TAFSAT
TAF
KSAT 291720Z 2918/3024 15010KT P6SM FEW070
     FM300900 21004KT P6SM SCT015
     FM301800 15007KT P6SM FEW070=



000
FTUS44 KEWX 291720
TAFSAT
TAF
KSAT 291720Z 2918/3024 15010KT P6SM FEW070
     FM300900 21004KT P6SM SCT015
     FM301800 15007KT P6SM FEW070=



000
FTUS44 KEWX 291720
TAFDRT
TAF
KDRT 291720Z 2918/3018 13012KT P6SM SKC
     FM301000 10009KT P6SM FEW020=



000
FTUS44 KEWX 291130
TAFDRT
TAF
KDRT 291130Z 2912/3012 11009KT P6SM SKC
     FM291330 11009KT P6SM SCT015
     FM291700 14013KT P6SM FEW030=



000
FTUS44 KEWX 291130
TAFSAT
TAF
KSAT 291130Z 2912/3018 17007KT P6SM BKN012
     FM291500 15010KT P6SM SCT040
     FM300900 21004KT P6SM FEW015 SCT080=



000
FTUS44 KEWX 291130
TAFAUS
TAF
KAUS 291130Z 2912/3018 16005KT P6SM BKN015
     FM291500 17010KT P6SM SCT040
     FM300900 21004KT P6SM FEW015 SCT080=



000
FTUS44 KEWX 290705 AAA
TAFAUS
TAF AMD
KAUS 290705Z 2907/3012 16005KT P6SM BKN012
     FM291500 17010KT P6SM SCT040
     FM300900 21004KT P6SM FEW015 SCT080=



    US Dept of Commerce
    National Oceanic and Atmospheric Administration
    National Weather Service
    1325 East West Highway
    Silver Spring, MD 20910
    Page Author: NWS Internet Services Team
Disclaimer
Information Quality
Credits
Glossary
Privacy Policy
Freedom of Information Act (FOIA)
About Us
Career Opportunities